Time;durP1;ratioP1;P1;durP2;ratioP2;P2;SDS_P1;SDS_P2;PMS_P1;PMS_P2;Temp;Humidity;BMP_temperature;BMP_pressure;BME280_temperature;BME280_humidity;BME280_pressure;Samples;Min_cycle;Max_cycle;Signal;HPM_P1;HPM_P2
2021/09/12 00:00:08;;;;;;;;;27.67;26.00;;;;;12.40;89.01;99646.47;6778608;19;2840811;-60
2021/09/12 00:02:38;;;;;;;;;30.00;28.33;;;;;12.43;87.66;99644.44;6778587;19;3599197;-59
2021/09/12 00:05:08;;;;;;;;;28.00;24.50;;;;;11.96;89.47;99635.13;6780273;19;2854435;-60
2021/09/12 00:07:37;;;;;;;;;27.00;25.00;;;;;11.75;90.50;99641.94;6747769;19;3602330;-59
2021/09/12 00:10:08;;;;;;;;;33.33;29.33;;;;;11.61;91.17;99638.34;6778611;19;3612667;-59
2021/09/12 00:12:38;;;;;;;;;28.33;26.67;;;;;11.46;91.41;99647.41;6786415;19;3594955;-59
2021/09/12 00:15:10;;;;;;;;;31.33;26.00;;;;;11.98;89.90;99643.06;6744028;19;2858606;-60
2021/09/12 00:17:39;;;;;;;;;25.00;25.00;;;;;11.35;90.95;99644.56;6775479;19;2852313;-59
2021/09/12 00:20:10;;;;;;;;;32.00;25.00;;;;;11.33;91.53;99638.44;6780701;19;2726306;-59
2021/09/12 00:22:39;;;;;;;;;25.67;25.33;;;;;11.39;91.62;99643.38;6774443;19;2856443;-60
2021/09/12 00:25:09;;;;;;;;;24.50;24.00;;;;;11.95;88.99;99637.91;6781786;19;2846027;-59
2021/09/12 00:27:37;;;;;;;;;28.00;25.00;;;;;12.12;88.86;99639.47;6744086;19;2854363;-59
2021/09/12 00:30:07;;;;;;;;;25.50;23.00;;;;;12.20;88.28;99635.25;6747280;19;2838739;-59
2021/09/12 00:32:36;;;;;;;;;29.33;27.33;;;;;11.66;89.54;99638.00;6744620;19;3612662;-59
2021/09/12 00:35:06;;;;;;;;;30.50;28.00;;;;;11.73;91.07;99633.94;6780971;19;2848118;-59
2021/09/12 00:37:36;;;;;;;;;27.50;27.50;;;;;11.80;90.68;99631.72;6746854;19;2850165;-59
2021/09/12 00:40:09;;;;;;;;;27.00;24.50;;;;;11.54;90.65;99637.00;6746673;19;2844973;-59
2021/09/12 00:42:37;;;;;;;;;28.00;25.00;;;;;11.56;91.22;99636.91;6744281;19;2858538;-59
2021/09/12 00:45:09;;;;;;;;;26.63;23.50;;;;;11.61;90.84;99635.66;6628562;19;3589790;-59
2021/09/12 00:47:38;;;;;;;;;24.33;24.33;;;;;11.74;90.57;99640.19;6743307;19;2843353;-59
2021/09/12 00:50:07;;;;;;;;;25.00;25.00;;;;;11.97;89.88;99631.44;6781637;19;2854367;-59
2021/09/12 00:52:40;;;;;;;;;25.00;24.00;;;;;11.72;90.46;99640.31;6747638;19;2498208;-59
2021/09/12 00:55:13;;;;;;;;;29.33;24.33;;;;;11.19;92.55;99637.50;6744748;19;2849124;-60
2021/09/12 00:57:46;;;;;;;;;31.00;24.50;;;;;11.15;92.35;99638.66;6776600;19;2849123;-60
2021/09/12 01:00:16;;;;;;;;;31.67;26.00;;;;;11.67;90.17;99628.13;6746695;19;2862708;-59
2021/09/12 01:02:45;;;;;;;;;29.33;25.33;;;;;11.61;90.38;99624.00;6779319;19;2864844;-59
2021/09/12 01:05:15;;;;;;;;;24.00;24.00;;;;;11.42;91.19;99624.38;6782631;19;2843916;-60
2021/09/12 01:07:45;;;;;;;;;26.50;24.00;;;;;10.66;93.36;99625.66;6745453;19;2843966;-60
2021/09/12 01:10:14;;;;;;;;;27.00;25.50;;;;;10.51;93.29;99621.28;6747917;19;2856411;-59
2021/09/12 01:12:44;;;;;;;;;28.00;24.00;;;;;11.11;90.34;99621.03;6743943;19;2852281;-59
2021/09/12 01:15:12;;;;;;;;;23.50;23.00;;;;;11.14;90.14;99619.97;6782061;19;2845991;-59
2021/09/12 01:17:42;;;;;;;;;25.00;25.00;;;;;11.09;89.90;99619.38;6745144;19;2841836;-59
2021/09/12 01:20:11;;;;;;;;;26.00;24.50;;;;;11.34;89.48;99624.00;6780259;19;2842878;-59
2021/09/12 01:22:40;;;;;;;;;26.00;23.00;;;;;11.39;89.26;99613.81;6746087;19;2836752;-59
2021/09/12 01:25:09;;;;;;;;;28.50;22.50;;;;;10.97;90.78;99618.34;6748915;19;2839780;-60
2021/09/12 01:27:37;;;;;;;;;24.00;24.00;;;;;10.63;93.12;99617.81;6745854;19;2836648;-59
2021/09/12 01:30:07;;;;;;;;;27.00;24.00;;;;;10.68;94.14;99623.75;6748842;19;2848114;-59
2021/09/12 01:32:37;;;;;;;;;30.33;26.00;;;;;10.63;93.77;99615.13;6745957;19;2862865;-59
2021/09/12 01:35:07;;;;;;;;;31.67;28.67;;;;;10.43;94.44;99612.84;6781814;19;2871121;-59
2021/09/12 01:37:36;;;;;;;;;22.50;20.50;;;;;10.38;95.63;99621.16;6779853;19;2841876;-60
2021/09/12 01:40:06;;;;;;;;;36.67;28.00;;;;;10.46;95.60;99620.69;6747591;19;3623071;-59
2021/09/12 01:42:35;;;;;;;;;27.50;25.00;;;;;11.05;91.32;99610.66;6778029;19;2837666;-59
2021/09/12 01:45:04;;;;;;;;;29.50;27.00;;;;;11.20;91.04;99615.03;6747004;19;2854331;-59
2021/09/12 01:47:32;;;;;;;;;26.00;24.00;;;;;10.70;92.95;99619.16;6745738;19;2842882;-59
2021/09/12 01:50:02;;;;;;;;;33.00;28.33;;;;;11.51;90.53;99621.09;6746545;19;3608480;-59
2021/09/12 01:52:31;;;;;;;;;31.67;28.33;;;;;11.14;91.81;99618.13;6778324;19;2855454;-59
2021/09/12 01:54:59;;;;;;;;;36.00;30.00;;;;;10.89;93.18;99626.03;6778329;19;2573128;-59
2021/09/12 01:57:28;;;;;;;;;28.67;25.67;;;;;10.60;94.61;99620.69;6744577;19;2850212;-59
2021/09/12 01:59:56;;;;;;;;;27.50;24.00;;;;;10.62;94.75;99618.78;6781513;19;2841864;-60
2021/09/12 02:02:25;;;;;;;;;31.00;27.50;;;;;11.17;91.97;99615.22;6744736;19;2854692;-60
2021/09/12 02:04:54;;;;;;;;;29.67;26.00;;;;;11.05;91.52;99620.53;6747692;19;3598048;-59
2021/09/12 02:07:23;;;;;;;;;29.00;25.50;;;;;10.60;93.53;99619.81;6779807;19;2850278;-60
2021/09/12 02:09:52;;;;;;;;;33.33;28.00;;;;;10.28;95.62;99620.00;6746008;19;3612627;-59
2021/09/12 02:12:21;;;;;;;;;26.00;25.00;;;;;10.80;94.08;99621.25;6780460;19;2828291;-59
2021/09/12 02:14:49;;;;;;;;;27.50;27.50;;;;;11.07;91.36;99624.84;6744323;19;2850173;-59
2021/09/12 02:17:18;;;;;;;;;29.00;25.50;;;;;11.15;92.00;99627.91;6742442;19;2841868;-60
2021/09/12 02:19:47;;;;;;;;;32.67;27.00;;;;;11.07;91.86;99613.25;6745036;19;2866944;-59
2021/09/12 02:22:17;;;;;;;;;29.00;26.33;;;;;10.55;94.22;99617.41;6774147;19;3606425;-59
2021/09/12 02:24:46;;;;;;;;;36.67;27.67;;;;;10.59;94.66;99610.91;6777050;19;3612683;-60
2021/09/12 02:27:16;;;;;;;;;39.67;29.33;;;;;10.48;94.38;99621.47;6774628;19;3620996;-59
2021/09/12 02:29:45;;;;;;;;;34.00;34.00;;;;;10.32;95.09;99618.84;6779781;19;2857494;-59
2021/09/12 02:32:14;;;;;;;;;41.67;33.67;;;;;10.04;93.88;99625.00;6776549;19;3607435;-60
2021/09/12 02:34:44;;;;;;;;;48.00;35.33;;;;;10.42;92.92;99611.09;6779228;19;3633493;-59
2021/09/12 02:37:13;;;;;;;;;48.67;35.67;;;;;9.93;94.28;99619.44;6778930;19;3632430;-59
2021/09/12 02:39:41;;;;;;;;;42.00;37.00;;;;;9.91;95.54;99621.34;6778509;19;2851315;-60
2021/09/12 02:42:11;;;;;;;;;46.00;37.00;;;;;10.07;94.96;99616.78;6743944;19;3622022;-59
2021/09/12 02:44:40;;;;;;;;;43.33;37.00;;;;;10.07;93.92;99611.41;6778129;19;2852256;-59
2021/09/12 02:47:08;;;;;;;;;51.50;42.50;;;;;10.18;93.64;99618.81;6774749;19;2845019;-59
2021/09/12 02:49:37;;;;;;;;;47.50;38.50;;;;;10.25;92.74;99610.28;6745382;19;2850231;-59
2021/09/12 02:52:07;;;;;;;;;48.00;38.00;;;;;10.19;93.60;99621.41;6745413;19;2855508;-59
2021/09/12 02:54:36;;;;;;;;;41.00;34.33;;;;;10.06;93.97;99615.91;6778075;19;2861694;-60
2021/09/12 02:57:06;;;;;;;;;41.33;35.00;;;;;9.99;93.88;99616.38;6777470;19;3605352;-59
2021/09/12 02:59:35;;;;;;;;;35.67;32.33;;;;;9.53;96.08;99619.09;6774605;19;2847041;-59
2021/09/12 03:02:03;;;;;;;;;36.50;32.00;;;;;9.77;95.48;99623.03;6777516;19;2852260;-59
2021/09/12 03:04:32;;;;;;;;;26.50;23.00;;;;;10.48;91.63;99616.97;6743291;19;2831404;-60
2021/09/12 03:07:01;;;;;;;;;35.33;31.33;;;;;10.18;93.03;99633.06;6740088;19;2857457;-59
2021/09/12 03:09:30;;;;;;;;;26.00;26.00;;;;;10.13;94.80;99632.50;6776791;19;2845005;-59
2021/09/12 03:11:58;;;;;;;;;25.00;25.00;;;;;10.58;93.13;99621.72;6745971;19;2852289;-59
2021/09/12 03:14:27;;;;;;;;;28.00;25.00;;;;;10.73;92.02;99626.16;6744299;19;2726247;-59
2021/09/12 03:16:56;;;;;;;;;29.33;25.00;;;;;10.86;91.59;99632.47;6773147;19;2852253;-59
2021/09/12 03:19:24;;;;;;;;;22.00;20.00;;;;;11.12;91.05;99628.09;6783040;19;2829359;-59
2021/09/12 03:21:52;;;;;;;;;30.00;25.00;;;;;10.63;92.12;99622.31;6741820;19;2851227;-59
2021/09/12 03:24:21;;;;;;;;;27.00;24.00;;;;;9.96;95.04;99630.84;6743794;19;2832466;-59
2021/09/12 03:26:49;;;;;;;;;25.00;21.00;;;;;9.84;96.65;99627.06;6743875;19;2844019;-59
2021/09/12 03:29:19;;;;;;;;;35.67;27.33;;;;;10.21;95.47;99624.84;6741268;19;3622049;-59
2021/09/12 03:31:47;;;;;;;;;28.50;25.00;;;;;9.87;96.78;99632.25;6775319;19;2848122;-60
2021/09/12 03:34:16;;;;;;;;;27.00;26.00;;;;;10.16;96.44;99632.31;6743255;19;2852244;-60
2021/09/12 03:36:43;;;;;;;;;22.50;19.00;;;;;10.58;93.62;99627.97;6750361;19;2498523;-59
2021/09/12 03:39:12;;;;;;;;;34.00;28.00;;;;;9.88;96.27;99623.25;6749525;19;2852279;-60
2021/09/12 03:41:42;;;;;;;;;13.40;10.80;;;;;9.81;97.41;99632.59;6780169;19;2791838;-60
2021/09/12 03:44:10;;;;;;;;;31.00;27.50;;;;;9.83;96.84;99638.75;6749491;19;2840799;-59
2021/09/12 03:46:39;;;;;;;;;27.00;27.00;;;;;9.87;96.66;99637.63;6751322;19;2846023;-59
2021/09/12 03:49:09;;;;;;;;;29.00;26.50;;;;;9.61;97.36;99639.16;6750711;19;2858534;-60
2021/09/12 03:51:38;;;;;;;;;31.50;25.50;;;;;9.59;97.66;99634.84;6750542;19;2853322;-60
2021/09/12 03:54:06;;;;;;;;;23.00;20.00;;;;;9.61;96.64;99639.16;6749559;19;2841959;-60
2021/09/12 03:56:34;;;;;;;;;27.00;24.00;;;;;9.78;97.02;99638.16;6750160;19;2846038;-60
2021/09/12 03:59:03;;;;;;;;;25.00;24.50;;;;;9.84;96.10;99640.47;6748875;19;2832461;-60
2021/09/12 04:01:32;;;;;;;;;27.50;22.50;;;;;10.12;95.71;99652.25;6750366;19;2848104;-59
2021/09/12 04:04:00;;;;;;;;;30.00;28.00;;;;;10.36;93.87;99643.69;6748859;19;2729381;-60
2021/09/12 04:06:29;;;;;;;;;32.00;28.00;;;;;10.06;94.93;99644.56;6782357;19;2850192;-60
2021/09/12 04:08:57;;;;;;;;;31.00;27.00;;;;;10.32;94.14;99646.56;6747185;19;2858654;-59
2021/09/12 04:11:26;;;;;;;;;26.50;24.00;;;;;9.82;96.24;99642.41;6747917;19;2843903;-60
2021/09/12 04:13:55;;;;;;;;;28.00;28.00;;;;;9.66;97.28;99644.22;6749690;19;3597078;-60
2021/09/12 04:16:24;;;;;;;;;25.00;25.00;;;;;10.24;94.24;99640.78;6782991;19;2845994;-60
2021/09/12 04:18:53;;;;;;;;;31.00;27.00;;;;;10.69;91.79;99646.97;6747224;19;2848187;-60
2021/09/12 04:21:23;;;;;;;;;31.33;26.00;;;;;10.32;93.25;99643.00;6780298;19;2845117;-59
2021/09/12 04:23:51;;;;;;;;;36.50;29.00;;;;;10.13;94.53;99643.22;6780658;19;2863714;-60
2021/09/12 04:26:19;;;;;;;;;25.50;24.00;;;;;10.09;94.71;99647.06;6749208;19;2498128;-59
2021/09/12 04:28:52;;;;;;;;;28.00;24.50;;;;;9.92;94.09;99641.84;6747252;19;2837753;-60
2021/09/12 04:31:20;;;;;;;;;27.00;25.00;;;;;9.75;96.17;99650.88;6750312;19;2844965;-59
2021/09/12 04:33:49;;;;;;;;;29.50;26.00;;;;;9.63;96.80;99656.00;6749138;19;2850197;-60
2021/09/12 04:36:17;;;;;;;;;30.00;26.00;;;;;9.32;97.62;99653.34;6748142;19;2840830;-60
2021/09/12 04:38:46;;;;;;;;;31.67;26.00;;;;;10.19;93.58;99661.66;6744569;19;2871078;-60
2021/09/12 04:41:16;;;;;;;;;31.67;29.00;;;;;9.22;94.84;99656.56;6782718;19;2855403;-60
2021/09/12 04:43:45;;;;;;;;;28.67;25.00;;;;;9.87;93.37;99652.81;6782812;19;3582448;-60
2021/09/12 04:46:14;;;;;;;;;30.00;29.67;;;;;9.85;94.19;99655.63;6778926;19;2856419;-59
2021/09/12 04:48:46;;;;;;;;;29.00;25.00;;;;;10.17;93.78;99655.50;6777986;19;2843951;-59
2021/09/12 04:51:24;;;;;;;;;30.67;28.33;;;;;10.42;92.89;99659.41;6749273;19;2858528;-60
2021/09/12 04:53:55;;;;;;;;;29.67;26.00;;;;;10.74;91.38;99652.91;6778126;19;3581390;-60
2021/09/12 04:56:24;;;;;;;;;25.00;22.50;;;;;10.82;91.51;99651.53;6781648;19;2845994;-59
2021/09/12 04:58:52;;;;;;;;;26.00;26.00;;;;;10.57;93.15;99652.25;6745943;19;2837678;-59
2021/09/12 05:01:21;;;;;;;;;24.50;24.00;;;;;10.57;93.68;99653.09;6748080;19;2848095;-59
2021/09/12 05:03:52;;;;;;;;;30.50;22.00;;;;;10.39;92.73;99655.09;6748022;19;2849171;-59
2021/09/12 05:06:20;;;;;;;;;22.50;20.00;;;;;9.97;93.00;99658.53;6748858;19;2498152;-60
2021/09/12 05:08:48;;;;;;;;;34.50;29.00;;;;;10.21;92.62;99661.53;6747028;19;2862688;-60
2021/09/12 05:11:17;;;;;;;;;30.67;28.00;;;;;10.51;91.42;99662.41;6746534;19;2853312;-60
2021/09/12 05:13:46;;;;;;;;;31.50;28.00;;;;;10.77;90.93;99652.72;6781370;19;2840109;-59
2021/09/12 05:16:15;;;;;;;;;26.50;24.00;;;;;11.13;90.14;99661.22;6749079;19;2839783;-59
2021/09/12 05:18:44;;;;;;;;;27.00;26.67;;;;;11.62;88.67;99664.25;6743296;19;2856457;-60
2021/09/12 05:21:13;;;;;;;;;26.00;23.50;;;;;11.48;89.64;99656.25;6780344;19;2850165;-60
2021/09/12 05:23:42;;;;;;;;;26.00;24.00;;;;;11.77;89.33;99659.69;6745688;19;2848090;-60
2021/09/12 05:26:11;;;;;;;;;26.00;25.50;;;;;12.13;87.87;99657.31;6779922;19;2831463;-59
2021/09/12 05:28:39;;;;;;;;;25.00;22.00;;;;;12.39;85.70;99664.44;6746725;19;2839780;-59
2021/09/12 05:31:08;;;;;;;;;22.00;22.00;;;;;12.13;87.87;99657.31;6746413;19;2842902;-59
2021/09/12 05:33:36;;;;;;;;;24.50;22.50;;;;;12.04;87.87;99656.97;6745505;19;2867885;-59
2021/09/12 05:36:06;;;;;;;;;23.33;22.67;;;;;11.93;88.52;99655.97;6748326;19;2850169;-59
2021/09/12 05:38:34;;;;;;;;;30.00;25.00;;;;;11.94;88.31;99653.19;6778383;19;2846007;-60
2021/09/12 05:41:04;;;;;;;;;28.00;25.67;;;;;12.18;87.99;99665.94;6743420;19;2851255;-60
2021/09/12 05:43:33;;;;;;;;;23.33;23.33;;;;;12.45;87.39;99661.34;6778725;19;2844957;-60
2021/09/12 05:46:02;;;;;;;;;22.00;19.00;;;;;12.80;85.71;99662.53;6777276;19;2836620;-60
2021/09/12 05:48:31;;;;;;;;;28.67;27.67;;;;;13.01;85.04;99671.78;6743944;19;2851301;-60
2021/09/12 05:51:02;;;;;;;;;20.50;18.00;;;;;13.73;82.39;99671.03;6780237;19;2498104;-61
2021/09/12 05:53:30;;;;;;;;;22.50;20.00;;;;;14.98;76.75;99679.38;6745457;19;2835634;-60
2021/09/12 05:55:59;;;;;;;;;23.00;21.50;;;;;14.26;79.83;99676.88;6744941;19;2843951;-60
2021/09/12 05:58:28;;;;;;;;;25.33;23.33;;;;;14.09;81.15;99677.34;6739772;19;2842909;-60
2021/09/12 06:00:57;;;;;;;;;24.00;20.00;;;;;14.26;81.07;99672.34;6778430;19;2837670;-60
2021/09/12 06:03:26;;;;;;;;;26.50;23.00;;;;;14.50;80.62;99679.53;6745553;19;2840791;-61
2021/09/12 06:05:55;;;;;;;;;32.00;25.00;;;;;14.70;80.29;99676.16;6747107;19;2850202;-60
2021/09/12 06:08:24;;;;;;;;;26.00;25.00;;;;;14.98;79.49;99679.38;6777338;19;2858571;-60
2021/09/12 06:10:53;;;;;;;;;25.00;22.33;;;;;16.24;74.36;99680.72;6783731;19;3575124;-60
2021/09/12 06:13:24;;;;;;;;;26.00;22.50;;;;;17.40;69.66;99689.63;6777847;19;2840823;-60
2021/09/12 06:15:53;;;;;;;;;23.00;20.00;;;;;17.13;70.19;99688.38;6741781;19;2839753;-60
2021/09/12 06:18:22;;;;;;;;;22.00;20.00;;;;;18.88;63.89;99698.59;6742139;19;2831480;-60
2021/09/12 06:20:51;;;;;;;;;24.00;22.00;;;;;20.09;60.80;99694.81;6746811;19;2842901;-60
2021/09/12 06:23:19;;;;;;;;;18.00;18.00;;;;;23.33;50.61;99706.44;6779387;19;2823594;-60
2021/09/12 06:25:48;;;;;;;;;23.33;20.33;;;;;22.52;53.11;99708.25;6753874;19;3566800;-61
2021/09/12 06:28:17;;;;;;;;;21.00;21.00;;;;;24.22;47.20;99707.03;6744588;19;2829377;-60
2021/09/12 06:30:46;;;;;;;;;23.67;21.00;;;;;23.57;48.75;99713.72;6751462;19;3583477;-60
2021/09/12 06:33:15;;;;;;;;;17.00;17.00;;;;;21.24;52.49;99700.16;6745041;19;2829397;-60
2021/09/12 06:35:43;;;;;;;;;17.00;17.00;;;;;18.20;62.14;99703.09;6749493;19;2819954;-61
2021/09/12 06:38:13;;;;;;;;;17.33;16.00;;;;;17.54;65.36;99691.97;6749954;19;3556375;-60
2021/09/12 06:40:41;;;;;;;;;17.00;14.50;;;;;17.52;65.11;99688.53;6746148;19;2814858;-60
2021/09/12 06:43:09;;;;;;;;;18.00;17.00;;;;;17.85;64.74;99700.03;6747095;19;2829380;-60
2021/09/12 06:45:37;;;;;;;;;20.50;17.50;;;;;18.10;65.05;99694.06;6746624;19;2498092;-58
2021/09/12 06:48:05;;;;;;;;;18.50;17.00;;;;;18.38;63.33;99702.38;6747524;19;2489751;-61
2021/09/12 06:50:33;;;;;;;;;14.00;14.00;;;;;18.18;63.90;99706.94;6748554;19;3531455;-61
2021/09/12 06:53:01;;;;;;;;;19.00;15.33;;;;;18.63;63.31;99700.91;6788049;19;2816979;-60
2021/09/12 06:55:30;;;;;;;;;13.00;13.00;;;;;18.99;62.68;99704.72;6779333;19;3533499;-59
2021/09/12 06:57:57;;;;;;;;;16.00;14.50;;;;;19.07;61.57;99699.41;6751030;19;2809661;-60
2021/09/12 07:00:26;;;;;;;;;13.00;13.00;;;;;19.34;60.88;99708.59;6759085;19;2808512;-61
2021/09/12 07:02:54;;;;;;;;;13.50;13.50;;;;;19.72;60.69;99699.41;6757464;19;2800661;-61
2021/09/12 07:05:22;;;;;;;;;13.00;13.00;;;;;19.87;59.99;99707.91;6761467;19;2799129;-61
2021/09/12 07:07:51;;;;;;;;;13.67;13.67;;;;;19.78;60.00;99713.44;6751193;19;3518988;-62
2021/09/12 07:10:19;;;;;;;;;16.33;15.00;;;;;19.92;59.05;99711.00;6782604;19;3548154;-61
2021/09/12 07:12:48;;;;;;;;;15.67;12.00;;;;;20.18;58.74;99705.66;6755185;19;3527209;-61
2021/09/12 07:15:17;;;;;;;;;15.33;13.00;;;;;20.37;58.59;99721.00;6754415;19;3541804;-61
2021/09/12 07:17:45;;;;;;;;;11.33;11.33;;;;;22.01;52.96;99726.59;6762850;19;2782460;-61
2021/09/12 07:20:16;;;;;;;;;12.71;12.71;;;;;27.11;41.08;99730.63;6822785;19;3512741;-61
2021/09/12 07:22:47;;;;;;;;;13.00;12.80;;;;;21.74;53.64;99725.00;6817763;19;2800195;-61
2021/09/12 07:25:16;;;;;;;;;13.33;11.67;;;;;20.93;53.94;99720.78;6750321;19;3508472;-61
2021/09/12 07:27:44;;;;;;;;;11.00;11.00;;;;;20.96;55.29;99715.03;6784513;19;3520979;-62
2021/09/12 07:30:14;;;;;;;;;13.67;10.00;;;;;21.30;54.42;99714.19;6794961;19;2777275;-60
2021/09/12 07:32:43;;;;;;;;;14.33;12.67;;;;;21.70;54.05;99722.59;6784692;19;3537689;-61
2021/09/12 07:35:12;;;;;;;;;12.33;10.33;;;;;21.39;55.70;99718.72;6754409;19;2783549;-61
2021/09/12 07:37:40;;;;;;;;;13.00;13.00;;;;;21.75;53.74;99715.75;6785212;19;3527376;-60
2021/09/12 07:40:10;;;;;;;;;13.00;12.00;;;;;22.03;51.95;99730.03;6786007;19;3535621;-61
2021/09/12 07:42:41;;;;;;;;;14.33;14.33;;;;;21.94;52.31;99728.31;6753858;19;3531487;-60
2021/09/12 07:45:10;;;;;;;;;12.00;12.00;;;;;22.08;51.34;99725.78;6750148;19;3529396;-61
2021/09/12 07:47:38;;;;;;;;;12.00;11.00;;;;;22.47;50.74;99725.19;6794319;19;2793910;-60
2021/09/12 07:50:07;;;;;;;;;11.00;11.00;;;;;21.86;50.93;99723.69;6791496;19;2798100;-60
2021/09/12 07:52:36;;;;;;;;;11.00;11.00;;;;;22.48;50.64;99729.63;6784604;19;3511581;-60
2021/09/12 07:55:05;;;;;;;;;13.33;12.00;;;;;22.60;49.38;99732.88;6786387;19;3508464;-60
2021/09/12 07:57:33;;;;;;;;;16.33;13.67;;;;;22.59;49.26;99733.88;6792802;19;2806433;-60
2021/09/12 08:00:03;;;;;;;;;10.00;10.00;;;;;22.94;49.26;99735.44;6795503;19;2772071;-60
2021/09/12 08:02:31;;;;;;;;;13.33;11.00;;;;;23.10;48.96;99737.31;6784695;19;3513712;-59
2021/09/12 08:05:00;;;;;;;;;14.33;12.33;;;;;22.97;47.37;99735.09;6752663;19;3526261;-61
2021/09/12 08:07:29;;;;;;;;;16.00;12.00;;;;;23.08;47.57;99733.03;6753285;19;3517839;-62
2021/09/12 08:09:59;;;;;;;;;12.67;12.67;;;;;23.57;47.12;99731.03;6752897;19;3519926;-63
2021/09/12 08:12:27;;;;;;;;;13.00;13.00;;;;;23.29;47.09;99733.34;6760436;19;2793918;-60
2021/09/12 08:14:55;;;;;;;;;14.00;13.00;;;;;23.53;48.15;99739.75;6787037;19;3529392;-61
2021/09/12 08:17:25;;;;;;;;;11.33;11.33;;;;;23.19;47.77;99740.88;6782579;19;3518884;-61
2021/09/12 08:19:53;;;;;;;;;8.67;8.67;;;;;23.42;46.74;99730.91;6750943;19;2752284;-61
2021/09/12 08:22:21;;;;;;;;;13.00;13.00;;;;;23.63;46.30;99734.94;6785688;19;3531428;-61
2021/09/12 08:24:49;;;;;;;;;14.00;11.33;;;;;23.40;47.15;99738.44;6793016;19;2794955;-61
2021/09/12 08:27:19;;;;;;;;;9.80;9.80;;;;;23.84;45.95;99728.88;6815701;19;2786646;-61
2021/09/12 08:29:47;;;;;;;;;12.33;12.00;;;;;23.94;46.39;99734.16;6750652;19;3527226;-61
2021/09/12 08:32:15;;;;;;;;;12.33;11.67;;;;;24.05;44.80;99733.72;6785676;19;3520968;-60
2021/09/12 08:34:43;;;;;;;;;11.67;10.33;;;;;23.75;45.65;99725.31;6794330;19;2784578;-61
2021/09/12 08:37:12;;;;;;;;;11.00;10.33;;;;;23.94;45.21;99723.19;6786394;19;3510599;-60
2021/09/12 08:39:42;;;;;;;;;9.33;9.33;;;;;24.49;45.15;99719.41;6793213;19;2760574;-60
2021/09/12 08:42:17;;;;;;;;;11.67;10.00;;;;;24.59;44.29;99717.25;6792964;19;2784670;-61
2021/09/12 08:44:50;;;;;;;;;12.67;12.67;;;;;25.33;43.36;99722.03;6780855;19;3528256;-60
2021/09/12 08:47:20;;;;;;;;;14.00;12.67;;;;;25.45;42.37;99723.28;6750858;19;3528275;-60
2021/09/12 08:49:52;;;;;;;;;13.33;12.00;;;;;25.54;41.62;99719.41;6749295;19;3521103;-60
2021/09/12 08:52:20;;;;;;;;;13.00;11.67;;;;;25.80;42.06;99726.28;6751344;19;3523158;-60
2021/09/12 08:54:49;;;;;;;;;10.67;8.67;;;;;25.12;41.98;99715.38;6754163;19;2771038;-61
2021/09/12 08:57:17;;;;;;;;;15.33;12.00;;;;;25.28;42.13;99708.88;6785659;19;3529313;-60
2021/09/12 08:59:51;;;;;;;;;12.00;12.00;;;;;25.62;40.69;99718.47;6748342;19;3517874;-60
2021/09/12 09:02:27;;;;;;;;;12.00;11.00;;;;;25.34;39.34;99723.75;6785869;19;3514714;-60
2021/09/12 09:05:04;;;;;;;;;13.67;11.33;;;;;25.26;40.09;99715.63;6782358;19;3509511;-61
2021/09/12 09:07:33;;;;;;;;;13.00;11.00;;;;;25.57;40.01;99713.53;6789811;19;2481446;-60
2021/09/12 09:10:05;;;;;;;;;11.67;10.33;;;;;25.78;38.62;99720.13;6784229;19;3511693;-59
2021/09/12 09:12:36;;;;;;;;;12.50;12.00;;;;;25.51;39.13;99707.91;6757374;19;2489767;-60
2021/09/12 09:15:20;;;;;;;;;11.00;11.00;;;;;25.88;39.58;99712.44;6780212;19;3517863;-60
2021/09/12 09:17:57;;;;;;;;;12.00;9.67;;;;;26.14;39.42;99711.91;6781153;19;3503258;-60
2021/09/12 09:20:34;;;;;;;;;12.00;12.00;;;;;26.02;39.33;99711.56;6789772;19;2811737;-61
2021/09/12 09:23:07;;;;;;;;;11.33;11.33;;;;;26.88;37.45;99711.59;6789710;19;2792908;-60
2021/09/12 09:25:35;;;;;;;;;11.00;11.00;;;;;26.64;36.92;99717.50;6792550;19;2783497;-61
2021/09/12 09:28:12;;;;;;;;;15.67;12.00;;;;;26.85;35.82;99703.72;6779973;19;3538702;-60
2021/09/12 09:30:57;;;;;;;;;12.00;10.00;;;;;26.11;35.56;99705.94;6761073;19;2788733;-60
2021/09/12 09:33:29;;;;;;;;;10.40;9.60;;;;;26.47;36.85;99709.50;6810445;19;2777244;-61
2021/09/12 09:36:06;;;;;;;;;11.67;10.00;;;;;26.74;36.33;99704.25;6747192;19;2782500;-61
2021/09/12 09:38:39;;;;;;;;;12.67;10.00;;;;;26.76;35.20;99698.56;6792188;19;2779354;-60
2021/09/12 09:41:18;;;;;;;;;10.67;10.67;;;;;27.09;34.66;99707.94;6775152;19;3512640;-60
2021/09/12 09:43:53;;;;;;;;;12.33;11.00;;;;;27.21;35.50;99705.50;6779953;19;3522021;-61
2021/09/12 09:46:42;;;;;;;;;10.20;6.80;;;;;27.26;33.05;99708.50;6810076;19;2767913;-60
2021/09/12 09:49:24;;;;;;;;;8.33;7.00;;;;;27.31;33.47;99692.19;6754347;19;2737673;-61
2021/09/12 09:52:01;;;;;;;;;13.00;11.00;;;;;27.28;34.15;99698.13;6779874;19;3526219;-61
2021/09/12 09:54:34;;;;;;;;;11.67;11.00;;;;;27.27;34.36;99701.91;6759816;19;2793918;-60
2021/09/12 09:57:03;;;;;;;;;11.67;9.33;;;;;27.12;33.78;99695.63;6796956;19;2774162;-60
2021/09/12 09:59:31;;;;;;;;;11.00;9.67;;;;;27.96;32.44;99686.34;6780153;19;3502243;-60
2021/09/12 10:01:59;;;;;;;;;11.00;8.00;;;;;28.15;31.85;99691.09;6780986;19;2764843;-60
2021/09/12 10:04:28;;;;;;;;;11.00;9.00;;;;;27.53;32.08;99686.59;6783245;19;3494927;-60
2021/09/12 10:06:58;;;;;;;;;10.00;10.00;;;;;27.66;32.05;99681.13;6794248;19;2776210;-60
2021/09/12 10:09:26;;;;;;;;;10.67;9.00;;;;;27.69;31.76;99686.22;6780216;19;2767885;-61
2021/09/12 10:12:00;;;;;;;;;14.00;10.33;;;;;27.11;32.16;99682.91;6792563;19;2784547;-60
2021/09/12 10:14:36;;;;;;;;;10.00;10.00;;;;;27.69;31.85;99680.72;6790035;19;2788027;-60
2021/09/12 10:17:11;;;;;;;;;9.00;8.67;;;;;27.44;31.86;99676.78;6793274;19;2752280;-60
2021/09/12 10:19:42;;;;;;;;;8.20;8.20;;;;;27.08;32.11;99678.66;6812413;19;2743936;-60
2021/09/12 10:22:19;;;;;;;;;9.00;9.00;;;;;28.09;31.27;99678.09;6761071;19;2754391;-60
2021/09/12 10:25:03;;;;;;;;;9.00;9.00;;;;;28.36;30.73;99672.66;6780084;19;3470970;-60
2021/09/12 10:27:45;;;;;;;;;10.00;10.00;;;;;28.49;30.36;99675.47;6779233;19;3514749;-60
2021/09/12 10:30:37;;;;;;;;;10.00;10.00;;;;;28.16;30.87;99676.22;6794570;19;2779378;-61
2021/09/12 10:33:05;;;;;;;;;9.67;9.67;;;;;27.89;30.68;99669.78;6795831;19;2773085;-60
2021/09/12 10:35:56;;;;;;;;;12.33;11.00;;;;;27.94;30.57;99666.41;6781223;19;3511632;-60
2021/09/12 10:38:43;;;;;;;;;9.33;9.33;;;;;28.64;30.62;99662.28;6755790;19;2756450;-60
2021/09/12 10:41:14;;;;;;;;;10.33;8.67;;;;;28.43;30.14;99665.22;6780441;19;2763738;-60
2021/09/12 10:43:49;;;;;;;;;8.67;8.67;;;;;28.32;29.73;99668.59;6782907;19;2764792;-60
2021/09/12 10:46:17;;;;;;;;;13.33;10.00;;;;;28.21;30.55;99662.63;6797631;19;2781410;-60
2021/09/12 10:49:04;;;;;;;;;11.00;10.00;;;;;28.03;29.35;99659.63;6797163;19;2787664;-60
2021/09/12 10:51:36;;;;;;;;;10.33;10.33;;;;;27.54;29.86;99652.41;6788528;19;2784590;-60
2021/09/12 10:54:05;;;;;;;;;14.67;11.00;;;;;28.13;30.25;99660.06;6784182;19;3510563;-61
2021/09/12 10:56:37;;;;;;;;;9.33;9.00;;;;;27.64;29.82;99660.31;6785880;19;3461630;-61
2021/09/12 10:59:12;;;;;;;;;10.33;10.33;;;;;28.27;30.60;99657.34;6796189;19;2793910;-61
2021/09/12 11:01:45;;;;;;;;;10.33;10.00;;;;;27.69;29.42;99646.75;6795026;19;2788020;-61
2021/09/12 11:04:18;;;;;;;;;11.20;10.00;;;;;27.86;30.13;99637.09;6814608;19;2783509;-62
2021/09/12 11:06:48;;;;;;;;;11.00;10.33;;;;;28.17;30.46;99636.53;6752678;19;3516797;-57
2021/09/12 11:09:23;;;;;;;;;54.75;41.00;;;;;28.38;29.92;99642.91;6760363;19;4380436;-60
2021/09/12 11:11:57;;;;;;;;;38.00;32.33;;;;;28.43;30.36;99638.47;6795241;19;3594955;-61
2021/09/12 11:14:28;;;;;;;;;21.33;17.00;;;;;28.69;29.81;99630.41;6757701;19;3571041;-61
2021/09/12 11:17:11;;;;;;;;;26.33;23.33;;;;;27.84;30.69;99622.66;6761311;19;3587636;-62